X  Fechar Dados meteorológicos de METAR da aviação     LIPZ Venice Marco Polo Airport
Temperatura
27°C Temperatura
21°C Ponto de orvalho
70% Umidade



Vento
13 KM/H
8 MPH
4 M/S
7 NÓS



360°
N
Condições atuais

Limpo Limpo
Pressão 1014.9 (hPa) - 29.97 (inHg)
Visibilidade 6 (milha) - 9.7 (km)
Aeroporto
Código do aeroporto LIPZ

Localização: Venice Marco Polo Airport
Distância: 26 (km)

Metar:
LIPZ 180020Z 36007KT CAVOK 27/21 Q1015 NOSIG

Hora: 18-07-2024 02:20 CEST